sensor_id;sensor_type;location;lat;lon;timestamp;pressure;altitude;pressure_sealevel;temperature;humidity
36192;BME280;22233;42.708;23.360;2023-07-31T00:00:58;95071.44;;;22.78;65.49
36192;BME280;22233;42.708;23.360;2023-07-31T00:03:23;95085.28;;;22.71;65.00
36192;BME280;22233;42.708;23.360;2023-07-31T00:05:48;95075.47;;;22.20;66.99
36192;BME280;22233;42.708;23.360;2023-07-31T00:08:14;95089.66;;;22.61;65.97
36192;BME280;22233;42.708;23.360;2023-07-31T00:10:39;95085.69;;;22.73;65.29
36192;BME280;22233;42.708;23.360;2023-07-31T00:13:04;95094.84;;;22.52;66.23
36192;BME280;22233;42.708;23.360;2023-07-31T00:15:30;95080.63;;;22.28;67.17
36192;BME280;22233;42.708;23.360;2023-07-31T00:17:55;95092.50;;;22.40;67.13
36192;BME280;22233;42.708;23.360;2023-07-31T00:20:21;95093.63;;;22.57;67.00
36192;BME280;22233;42.708;23.360;2023-07-31T00:22:46;95081.41;;;22.40;67.16
36192;BME280;22233;42.708;23.360;2023-07-31T00:25:12;95076.22;;;22.63;66.45
36192;BME280;22233;42.708;23.360;2023-07-31T00:27:37;95061.63;;;22.48;66.49
36192;BME280;22233;42.708;23.360;2023-07-31T00:30:03;95062.38;;;22.70;65.87
36192;BME280;22233;42.708;23.360;2023-07-31T00:32:28;95053.69;;;22.61;66.98
36192;BME280;22233;42.708;23.360;2023-07-31T00:34:54;95059.94;;;22.80;66.44
36192;BME280;22233;42.708;23.360;2023-07-31T00:37:19;95013.41;;;22.39;67.72
36192;BME280;22233;42.708;23.360;2023-07-31T00:39:44;95026.44;;;22.56;67.49
36192;BME280;22233;42.708;23.360;2023-07-31T00:42:10;95038.16;;;22.92;66.48
36192;BME280;22233;42.708;23.360;2023-07-31T00:44:35;95035.56;;;22.39;67.99
36192;BME280;22233;42.708;23.360;2023-07-31T00:47:01;95049.38;;;22.42;68.46
36192;BME280;22233;42.708;23.360;2023-07-31T00:49:26;95031.22;;;22.12;69.39
36192;BME280;22233;42.708;23.360;2023-07-31T00:51:53;95035.97;;;22.05;69.70
36192;BME280;22233;42.708;23.360;2023-07-31T00:54:19;95043.09;;;22.06;69.70
36192;BME280;22233;42.708;23.360;2023-07-31T00:56:47;95042.28;;;22.02;70.08
36192;BME280;22233;42.708;23.360;2023-07-31T00:59:13;95045.06;;;21.94;70.44
36192;BME280;22233;42.708;23.360;2023-07-31T01:01:40;95042.69;;;21.79;71.66
36192;BME280;22233;42.708;23.360;2023-07-31T01:04:05;95043.47;;;21.97;70.83
36192;BME280;22233;42.708;23.360;2023-07-31T01:06:48;95031.22;;;21.91;71.55
36192;BME280;22233;42.708;23.360;2023-07-31T01:11:57;95045.44;;;21.68;72.97
36192;BME280;22233;42.708;23.360;2023-07-31T01:14:25;95043.47;;;21.86;72.23
36192;BME280;22233;42.708;23.360;2023-07-31T01:16:50;95050.56;;;21.77;72.50
36192;BME280;22233;42.708;23.360;2023-07-31T01:19:18;95018.59;;;21.58;73.00
36192;BME280;22233;42.708;23.360;2023-07-31T01:24:58;95037.16;;;21.86;72.70
36192;BME280;22233;42.708;23.360;2023-07-31T01:27:30;95027.19;;;21.27;75.39
36192;BME280;22233;42.708;23.360;2023-07-31T01:30:34;95024.47;;;21.49;74.51
36192;BME280;22233;42.708;23.360;2023-07-31T01:33:03;95026.44;;;21.41;74.48
36192;BME280;22233;42.708;23.360;2023-07-31T01:35:33;94990.06;;;21.14;75.17
36192;BME280;22233;42.708;23.360;2023-07-31T01:37:59;95016.22;;;21.60;74.12
36192;BME280;22233;42.708;23.360;2023-07-31T01:40:24;95024.91;;;21.47;74.48
36192;BME280;22233;42.708;23.360;2023-07-31T01:42:50;95024.44;;;21.38;75.24
36192;BME280;22233;42.708;23.360;2023-07-31T01:45:15;95028.06;;;21.60;74.72
36192;BME280;22233;42.708;23.360;2023-07-31T01:47:41;95033.19;;;21.62;74.06
36192;BME280;22233;42.708;23.360;2023-07-31T01:50:06;95022.88;;;21.37;74.74
36192;BME280;22233;42.708;23.360;2023-07-31T01:52:32;95022.09;;;21.40;75.04
36192;BME280;22233;42.708;23.360;2023-07-31T01:54:57;95028.78;;;21.32;76.14
36192;BME280;22233;42.708;23.360;2023-07-31T01:57:23;95026.81;;;21.36;75.75
36192;BME280;22233;42.708;23.360;2023-07-31T01:59:48;95026.44;;;21.38;75.16
36192;BME280;22233;42.708;23.360;2023-07-31T02:02:13;95039.50;;;21.44;75.46
36192;BME280;22233;42.708;23.360;2023-07-31T02:04:39;95039.50;;;21.48;75.80
36192;BME280;22233;42.708;23.360;2023-07-31T02:07:06;95046.59;;;21.52;75.11
36192;BME280;22233;42.708;23.360;2023-07-31T02:09:31;95045.44;;;21.53;75.14
36192;BME280;22233;42.708;23.360;2023-07-31T02:11:56;95042.63;;;21.39;75.92
36192;BME280;22233;42.708;23.360;2023-07-31T02:14:22;95038.66;;;21.33;76.17
36192;BME280;22233;42.708;23.360;2023-07-31T02:16:47;95053.59;;;21.25;76.61
36192;BME280;22233;42.708;23.360;2023-07-31T02:19:13;95041.03;;;21.38;76.33
36192;BME280;22233;42.708;23.360;2023-07-31T02:21:38;95054.50;;;21.43;76.16
36192;BME280;22233;42.708;23.360;2023-07-31T02:24:04;95034.28;;;21.28;76.74
36192;BME280;22233;42.708;23.360;2023-07-31T02:26:29;95055.28;;;21.54;76.26
36192;BME280;22233;42.708;23.360;2023-07-31T02:28:55;95047.81;;;21.80;75.18
36192;BME280;22233;42.708;23.360;2023-07-31T02:31:20;95045.03;;;21.73;75.48
36192;BME280;22233;42.708;23.360;2023-07-31T02:33:45;95040.72;;;21.61;75.36
36192;BME280;22233;42.708;23.360;2023-07-31T02:36:11;95040.31;;;21.70;75.63
36192;BME280;22233;42.708;23.360;2023-07-31T02:38:36;95037.50;;;21.45;76.86
36192;BME280;22233;42.708;23.360;2023-07-31T02:41:02;95042.28;;;21.62;75.80
36192;BME280;22233;42.708;23.360;2023-07-31T02:43:27;95039.91;;;21.68;75.77
36192;BME280;22233;42.708;23.360;2023-07-31T02:45:53;95040.69;;;21.68;76.52
36192;BME280;22233;42.708;23.360;2023-07-31T02:48:18;95040.31;;;21.91;75.13
36192;BME280;22233;42.708;23.360;2023-07-31T02:50:45;95055.72;;;21.78;75.48
36192;BME280;22233;42.708;23.360;2023-07-31T02:53:10;95057.22;;;21.40;77.16
36192;BME280;22233;42.708;23.360;2023-07-31T02:55:36;95059.25;;;21.53;76.72
36192;BME280;22233;42.708;23.360;2023-07-31T02:58:01;95070.28;;;21.46;77.07
36192;BME280;22233;42.708;23.360;2023-07-31T03:00:27;95066.34;;;21.51;76.63
36192;BME280;22233;42.708;23.360;2023-07-31T03:02:53;95071.91;;;21.62;76.54
36192;BME280;22233;42.708;23.360;2023-07-31T03:05:18;95075.44;;;21.66;76.22
36192;BME280;22233;42.708;23.360;2023-07-31T03:07:43;95073.47;;;21.70;75.90
36192;BME280;22233;42.708;23.360;2023-07-31T03:10:09;95076.22;;;21.63;76.23
36192;BME280;22233;42.708;23.360;2023-07-31T03:12:34;95067.97;;;21.84;75.65
36192;BME280;22233;42.708;23.360;2023-07-31T03:15:00;95070.31;;;21.64;76.16
36192;BME280;22233;42.708;23.360;2023-07-31T03:17:25;95069.16;;;21.76;75.68
36192;BME280;22233;42.708;23.360;2023-07-31T03:19:51;95087.72;;;21.86;75.55
36192;BME280;22233;42.708;23.360;2023-07-31T03:22:16;95067.97;;;21.73;75.61
36192;BME280;22233;42.708;23.360;2023-07-31T03:24:41;95073.47;;;21.63;76.24
36192;BME280;22233;42.708;23.360;2023-07-31T03:27:07;95078.63;;;21.68;76.69
36192;BME280;22233;42.708;23.360;2023-07-31T03:29:32;95075.44;;;21.59;76.41
36192;BME280;22233;42.708;23.360;2023-07-31T03:31:57;95069.56;;;21.82;75.37
36192;BME280;22233;42.708;23.360;2023-07-31T03:34:24;95080.63;;;22.00;74.85
36192;BME280;22233;42.708;23.360;2023-07-31T03:36:49;95077.84;;;22.03;74.71
36192;BME280;22233;42.708;23.360;2023-07-31T03:39:15;95091.69;;;22.28;73.92
36192;BME280;22233;42.708;23.360;2023-07-31T03:41:40;95082.97;;;21.90;74.78
36192;BME280;22233;42.708;23.360;2023-07-31T03:44:05;95076.66;;;22.04;74.58
36192;BME280;22233;42.708;23.360;2023-07-31T03:46:31;95072.31;;;22.14;74.28
36192;BME280;22233;42.708;23.360;2023-07-31T03:48:56;95088.53;;;22.33;73.10
36192;BME280;22233;42.708;23.360;2023-07-31T03:51:22;95097.22;;;22.00;74.25
36192;BME280;22233;42.708;23.360;2023-07-31T03:53:47;95098.00;;;22.00;74.23
36192;BME280;22233;42.708;23.360;2023-07-31T03:56:13;95072.69;;;21.91;73.62
36192;BME280;22233;42.708;23.360;2023-07-31T03:58:38;95088.13;;;22.06;73.56
36192;BME280;22233;42.708;23.360;2023-07-31T04:01:04;95079.84;;;22.13;73.25
36192;BME280;22233;42.708;23.360;2023-07-31T04:03:29;95092.06;;;21.80;74.98
36192;BME280;22233;42.708;23.360;2023-07-31T04:05:55;95080.59;;;21.92;73.52
36192;BME280;22233;42.708;23.360;2023-07-31T04:08:21;95098.78;;;22.01;73.88
36192;BME280;22233;42.708;23.360;2023-07-31T04:10:47;95105.09;;;22.08;73.40
36192;BME280;22233;42.708;23.360;2023-07-31T04:13:12;95107.13;;;22.26;72.52
36192;BME280;22233;42.708;23.360;2023-07-31T04:15:38;95106.69;;;22.27;72.60
36192;BME280;22233;42.708;23.360;2023-07-31T04:18:04;95103.50;;;21.75;74.49
36192;BME280;22233;42.708;23.360;2023-07-31T04:20:30;95101.16;;;21.88;74.54
36192;BME280;22233;42.708;23.360;2023-07-31T04:22:55;95098.38;;;21.95;74.18
36192;BME280;22233;42.708;23.360;2023-07-31T04:25:20;95111.41;;;22.09;73.55
36192;BME280;22233;42.708;23.360;2023-07-31T04:27:46;95097.22;;;22.00;73.20
36192;BME280;22233;42.708;23.360;2023-07-31T04:30:11;95114.59;;;22.11;73.00
36192;BME280;22233;42.708;23.360;2023-07-31T04:32:36;95122.47;;;22.23;72.46
36192;BME280;22233;42.708;23.360;2023-07-31T04:35:02;95124.06;;;22.03;73.06
36192;BME280;22233;42.708;23.360;2023-07-31T04:37:28;95120.50;;;21.91;73.98
36192;BME280;22233;42.708;23.360;2023-07-31T04:39:53;95112.63;;;22.08;73.05
36192;BME280;22233;42.708;23.360;2023-07-31T04:42:19;95122.88;;;21.86;73.52
36192;BME280;22233;42.708;23.360;2023-07-31T04:44:44;95113.78;;;21.89;73.59
36192;BME280;22233;42.708;23.360;2023-07-31T04:47:10;95120.50;;;21.95;73.61
36192;BME280;22233;42.708;23.360;2023-07-31T04:49:35;95111.03;;;22.03;72.84
36192;BME280;22233;42.708;23.360;2023-07-31T04:52:01;95110.63;;;21.90;73.24
36192;BME280;22233;42.708;23.360;2023-07-31T04:54:26;95101.94;;;21.81;73.18
36192;BME280;22233;42.708;23.360;2023-07-31T04:56:51;95125.25;;;21.94;73.16
36192;BME280;22233;42.708;23.360;2023-07-31T04:59:18;95113.78;;;22.03;72.91
36192;BME280;22233;42.708;23.360;2023-07-31T05:01:43;95114.59;;;22.11;72.69
36192;BME280;22233;42.708;23.360;2023-07-31T05:04:13;95116.97;;;22.12;72.33
36192;BME280;22233;42.708;23.360;2023-07-31T05:06:39;95106.66;;;21.84;73.86
36192;BME280;22233;42.708;23.360;2023-07-31T05:09:04;95105.09;;;22.01;73.00
36192;BME280;22233;42.708;23.360;2023-07-31T05:11:30;95118.13;;;22.15;72.48
36192;BME280;22233;42.708;23.360;2023-07-31T05:13:55;95107.09;;;22.08;72.46
36192;BME280;22233;42.708;23.360;2023-07-31T05:16:20;95108.25;;;22.03;72.52
36192;BME280;22233;42.708;23.360;2023-07-31T05:18:46;95113.41;;;22.12;72.96
36192;BME280;22233;42.708;23.360;2023-07-31T05:21:11;95112.22;;;22.09;72.82
36192;BME280;22233;42.708;23.360;2023-07-31T05:23:36;95116.22;;;22.33;71.79
36192;BME280;22233;42.708;23.360;2023-07-31T05:26:06;95100.75;;;22.50;70.69
36192;BME280;22233;42.708;23.360;2023-07-31T05:28:33;95110.66;;;22.26;70.52
36192;BME280;22233;42.708;23.360;2023-07-31T05:30:59;95114.22;;;22.38;70.99
36192;BME280;22233;42.708;23.360;2023-07-31T05:33:25;95120.91;;;22.22;71.32
36192;BME280;22233;42.708;23.360;2023-07-31T05:35:51;95108.31;;;22.36;71.04
36192;BME280;22233;42.708;23.360;2023-07-31T05:38:16;95106.69;;;22.45;70.95
36192;BME280;22233;42.708;23.360;2023-07-31T05:40:42;95107.50;;;22.42;70.68
36192;BME280;22233;42.708;23.360;2023-07-31T05:43:08;95113.81;;;22.46;70.47
36192;BME280;22233;42.708;23.360;2023-07-31T05:45:33;95113.84;;;22.36;70.47
36192;BME280;22233;42.708;23.360;2023-07-31T05:47:59;95105.09;;;22.59;69.54
36192;BME280;22233;42.708;23.360;2023-07-31T05:50:24;95107.47;;;22.53;69.07
36192;BME280;22233;42.708;23.360;2023-07-31T05:52:49;95109.84;;;22.51;69.23
36192;BME280;22233;42.708;23.360;2023-07-31T05:55:15;95111.84;;;22.43;69.32
36192;BME280;22233;42.708;23.360;2023-07-31T05:57:41;95107.09;;;22.37;68.82
36192;BME280;22233;42.708;23.360;2023-07-31T06:00:07;95112.97;;;22.71;67.71
36192;BME280;22233;42.708;23.360;2023-07-31T06:02:33;95112.16;;;22.85;66.64
36192;BME280;22233;42.708;23.360;2023-07-31T06:05:02;95122.03;;;22.93;65.87
36192;BME280;22233;42.708;23.360;2023-07-31T06:07:29;95119.72;;;22.66;66.69
36192;BME280;22233;42.708;23.360;2023-07-31T06:09:54;95133.53;;;22.77;66.89
36192;BME280;22233;42.708;23.360;2023-07-31T06:12:20;95128.00;;;22.73;66.44
36192;BME280;22233;42.708;23.360;2023-07-31T06:14:46;95112.63;;;22.62;66.16
36192;BME280;22233;42.708;23.360;2023-07-31T06:17:11;95109.78;;;22.87;65.61
36192;BME280;22233;42.708;23.360;2023-07-31T06:19:37;95127.59;;;22.71;65.83
36192;BME280;22233;42.708;23.360;2023-07-31T06:22:02;95114.19;;;22.66;65.52
36192;BME280;22233;42.708;23.360;2023-07-31T06:24:28;95116.09;;;23.05;64.97
36192;BME280;22233;42.708;23.360;2023-07-31T06:26:53;95121.59;;;23.12;63.59
36192;BME280;22233;42.708;23.360;2023-07-31T06:29:20;95122.41;;;23.09;64.20
36192;BME280;22233;42.708;23.360;2023-07-31T06:31:46;95112.94;;;22.96;64.31
36192;BME280;22233;42.708;23.360;2023-07-31T06:34:11;95103.47;;;22.76;64.45
36192;BME280;22233;42.708;23.360;2023-07-31T06:36:36;95108.63;;;22.77;64.70
36192;BME280;22233;42.708;23.360;2023-07-31T06:39:02;95112.13;;;23.06;64.27
36192;BME280;22233;42.708;23.360;2023-07-31T06:41:27;95112.94;;;22.85;64.24
36192;BME280;22233;42.708;23.360;2023-07-31T06:43:53;95096.75;;;22.73;64.13
36192;BME280;22233;42.708;23.360;2023-07-31T06:46:18;95109.78;;;22.83;64.31
36192;BME280;22233;42.708;23.360;2023-07-31T06:48:44;95113.31;;;22.91;64.28
36192;BME280;22233;42.708;23.360;2023-07-31T06:51:09;95113.31;;;22.91;64.68
36192;BME280;22233;42.708;23.360;2023-07-31T06:53:35;95099.47;;;22.91;64.56
36192;BME280;22233;42.708;23.360;2023-07-31T06:56:00;95119.63;;;22.99;63.59
36192;BME280;22233;42.708;23.360;2023-07-31T06:58:25;95123.22;;;22.92;63.35
36192;BME280;22233;42.708;23.360;2023-07-31T07:00:51;95105.78;;;22.99;63.49
36192;BME280;22233;42.708;23.360;2023-07-31T07:03:19;95096.72;;;22.87;62.90
36192;BME280;22233;42.708;23.360;2023-07-31T07:05:45;95101.06;;;23.06;62.50
36192;BME280;22233;42.708;23.360;2023-07-31T07:08:10;95096.31;;;22.89;62.35
36192;BME280;22233;42.708;23.360;2023-07-31T07:10:37;95112.53;;;22.90;62.34
36192;BME280;22233;42.708;23.360;2023-07-31T07:13:02;95117.66;;;22.99;62.18
36192;BME280;22233;42.708;23.360;2023-07-31T07:15:27;95101.78;;;23.21;62.49
36192;BME280;22233;42.708;23.360;2023-07-31T07:17:54;95114.41;;;23.26;61.30
36192;BME280;22233;42.708;23.360;2023-07-31T07:20:19;95119.66;;;23.02;62.03
36192;BME280;22233;42.708;23.360;2023-07-31T07:22:45;95111.72;;;23.08;62.24
36192;BME280;22233;42.708;23.360;2023-07-31T07:25:10;95125.63;;;22.90;61.92
36192;BME280;22233;42.708;23.360;2023-07-31T07:27:36;95110.91;;;23.18;61.43
36192;BME280;22233;42.708;23.360;2023-07-31T07:30:01;95104.97;;;23.16;61.85
36192;BME280;22233;42.708;23.360;2023-07-31T07:32:27;95112.38;;;23.41;60.86
36192;BME280;22233;42.708;23.360;2023-07-31T07:34:52;95097.75;;;23.40;60.46
36192;BME280;22233;42.708;23.360;2023-07-31T07:37:18;95118.22;;;23.64;60.15
36192;BME280;22233;42.708;23.360;2023-07-31T07:39:43;95111.09;;;23.60;59.41
36192;BME280;22233;42.708;23.360;2023-07-31T07:42:09;95125.63;;;23.85;58.53
36192;BME280;22233;42.708;23.360;2023-07-31T07:44:34;95112.50;;;23.93;57.81
36192;BME280;22233;42.708;23.360;2023-07-31T07:46:59;95123.84;;;24.17;57.40
36192;BME280;22233;42.708;23.360;2023-07-31T07:49:25;95119.88;;;24.14;58.00
36192;BME280;22233;42.708;23.360;2023-07-31T07:51:50;95109.84;;;24.31;57.85
36192;BME280;22233;42.708;23.360;2023-07-31T07:54:16;95134.72;;;24.42;56.60
36192;BME280;22233;42.708;23.360;2023-07-31T07:56:46;95119.19;;;24.48;55.84
36192;BME280;22233;42.708;23.360;2023-07-31T07:59:11;95125.09;;;24.57;55.79
36192;BME280;22233;42.708;23.360;2023-07-31T08:01:37;95131.41;;;24.61;55.42
36192;BME280;22233;42.708;23.360;2023-07-31T08:04:02;95127.81;;;24.61;55.29
36192;BME280;22233;42.708;23.360;2023-07-31T08:06:28;95122.38;;;24.91;54.92
36192;BME280;22233;42.708;23.360;2023-07-31T08:08:55;95117.09;;;25.01;54.17
36192;BME280;22233;42.708;23.360;2023-07-31T08:11:20;95127.06;;;24.98;54.22
36192;BME280;22233;42.708;23.360;2023-07-31T08:13:47;95117.75;;;24.78;54.84
36192;BME280;22233;42.708;23.360;2023-07-31T08:16:12;95121.53;;;24.95;54.80
36192;BME280;22233;42.708;23.360;2023-07-31T08:18:37;95129.09;;;24.94;54.15
36192;BME280;22233;42.708;23.360;2023-07-31T08:21:03;95116.28;;;25.04;54.39
36192;BME280;22233;42.708;23.360;2023-07-31T08:23:28;95124.97;;;25.09;53.59
36192;BME280;22233;42.708;23.360;2023-07-31T08:25:54;95133.16;;;25.24;53.86
36192;BME280;22233;42.708;23.360;2023-07-31T08:28:19;95114.00;;;24.95;53.70
36192;BME280;22233;42.708;23.360;2023-07-31T08:30:45;95119.34;;;25.13;53.43
36192;BME280;22233;42.708;23.360;2023-07-31T08:33:10;95128.00;;;25.22;53.40
36192;BME280;22233;42.708;23.360;2023-07-31T08:35:36;95125.63;;;25.21;53.50
36192;BME280;22233;42.708;23.360;2023-07-31T08:38:01;95129.03;;;25.01;52.81
36192;BME280;22233;42.708;23.360;2023-07-31T08:40:28;95117.81;;;24.70;53.70
36192;BME280;22233;42.708;23.360;2023-07-31T08:42:55;95119.63;;;24.88;52.96
36192;BME280;22233;42.708;23.360;2023-07-31T08:45:22;95107.56;;;25.05;52.82
36192;BME280;22233;42.708;23.360;2023-07-31T08:47:50;95112.25;;;25.08;52.42
36192;BME280;22233;42.708;23.360;2023-07-31T08:50:18;95113.22;;;25.29;52.31
36192;BME280;22233;42.708;23.360;2023-07-31T08:52:46;95116.13;;;25.18;52.47
36192;BME280;22233;42.708;23.360;2023-07-31T08:55:12;95100.88;;;25.34;51.88
36192;BME280;22233;42.708;23.360;2023-07-31T08:57:38;95116.50;;;25.55;51.14
36192;BME280;22233;42.708;23.360;2023-07-31T09:00:05;95106.25;;;25.48;51.16
36192;BME280;22233;42.708;23.360;2023-07-31T09:02:34;95116.16;;;25.80;50.67
36192;BME280;22233;42.708;23.360;2023-07-31T09:05:01;95114.41;;;25.62;50.85
36192;BME280;22233;42.708;23.360;2023-07-31T09:07:28;95108.47;;;25.91;50.23
36192;BME280;22233;42.708;23.360;2023-07-31T09:09:54;95112.19;;;26.08;50.01
36192;BME280;22233;42.708;23.360;2023-07-31T09:12:19;95115.31;;;25.83;49.71
36192;BME280;22233;42.708;23.360;2023-07-31T09:14:46;95101.66;;;25.65;49.99
36192;BME280;22233;42.708;23.360;2023-07-31T09:17:12;95112.06;;;25.88;50.25
36192;BME280;22233;42.708;23.360;2023-07-31T09:19:37;95101.97;;;25.70;50.28
36192;BME280;22233;42.708;23.360;2023-07-31T09:22:06;95110.06;;;26.16;49.42
36192;BME280;22233;42.708;23.360;2023-07-31T09:24:33;95104.44;;;26.19;49.24
36192;BME280;22233;42.708;23.360;2023-07-31T09:27:00;95102.41;;;26.47;49.17
36192;BME280;22233;42.708;23.360;2023-07-31T09:29:27;95098.47;;;26.68;47.90
36192;BME280;22233;42.708;23.360;2023-07-31T09:31:54;95085.16;;;26.32;48.51
36192;BME280;22233;42.708;23.360;2023-07-31T09:34:20;95094.59;;;26.62;48.56
36192;BME280;22233;42.708;23.360;2023-07-31T09:36:53;95076.56;;;26.70;48.38
36192;BME280;22233;42.708;23.360;2023-07-31T09:39:19;95088.00;;;26.76;48.33
36192;BME280;22233;42.708;23.360;2023-07-31T09:41:47;95095.94;;;26.77;48.07
36192;BME280;22233;42.708;23.360;2023-07-31T09:44:18;95086.47;;;26.95;47.17
36192;BME280;22233;42.708;23.360;2023-07-31T09:46:43;95086.31;;;27.02;47.72
36192;BME280;22233;42.708;23.360;2023-07-31T09:49:13;95081.84;;;27.28;46.85
36192;BME280;22233;42.708;23.360;2023-07-31T09:51:41;95074.59;;;27.30;46.37
36192;BME280;22233;42.708;23.360;2023-07-31T09:54:15;95084.22;;;26.86;47.20
36192;BME280;22233;42.708;23.360;2023-07-31T09:56:46;95085.84;;;27.27;46.45
36192;BME280;22233;42.708;23.360;2023-07-31T09:59:17;95079.31;;;26.94;47.27
36192;BME280;22233;42.708;23.360;2023-07-31T10:01:44;95071.91;;;27.27;46.15
36192;BME280;22233;42.708;23.360;2023-07-31T10:04:12;95069.13;;;27.27;46.64
36192;BME280;22233;42.708;23.360;2023-07-31T10:06:38;95078.66;;;26.86;47.09
36192;BME280;22233;42.708;23.360;2023-07-31T10:09:06;95076.03;;;26.99;46.27
36192;BME280;22233;42.708;23.360;2023-07-31T10:11:35;95061.38;;;27.15;45.40
36192;BME280;22233;42.708;23.360;2023-07-31T10:14:04;95076.13;;;27.35;45.57
36192;BME280;22233;42.708;23.360;2023-07-31T10:16:31;95066.16;;;27.70;44.91
36192;BME280;22233;42.708;23.360;2023-07-31T10:18:57;95072.84;;;27.57;45.06
36192;BME280;22233;42.708;23.360;2023-07-31T10:21:23;95059.78;;;27.54;44.97
36192;BME280;22233;42.708;23.360;2023-07-31T10:23:49;95083.06;;;27.27;44.67
36192;BME280;22233;42.708;23.360;2023-07-31T10:26:16;95079.09;;;27.24;45.16
36192;BME280;22233;42.708;23.360;2023-07-31T10:28:42;95070.03;;;27.40;44.30
36192;BME280;22233;42.708;23.360;2023-07-31T10:31:09;95060.97;;;27.53;44.33
36192;BME280;22233;42.708;23.360;2023-07-31T10:33:35;95051.63;;;27.79;43.34
36192;BME280;22233;42.708;23.360;2023-07-31T10:36:16;95047.97;;;27.82;42.91
36192;BME280;22233;42.708;23.360;2023-07-31T10:38:42;95062.22;;;27.88;43.47
36192;BME280;22233;42.708;23.360;2023-07-31T10:41:09;95055.53;;;28.02;42.41
36192;BME280;22233;42.708;23.360;2023-07-31T10:43:36;95055.88;;;28.04;42.08
36192;BME280;22233;42.708;23.360;2023-07-31T10:46:06;95052.09;;;28.27;41.98
36192;BME280;22233;42.708;23.360;2023-07-31T10:48:34;95062.22;;;28.21;42.94
36192;BME280;22233;42.708;23.360;2023-07-31T10:51:07;95049.59;;;28.16;42.14
36192;BME280;22233;42.708;23.360;2023-07-31T10:53:33;95051.06;;;28.21;42.67
36192;BME280;22233;42.708;23.360;2023-07-31T10:56:03;95062.66;;;28.36;41.68
36192;BME280;22233;42.708;23.360;2023-07-31T10:58:30;95041.53;;;28.35;41.97
36192;BME280;22233;42.708;23.360;2023-07-31T11:00:57;95050.34;;;28.33;42.21
36192;BME280;22233;42.708;23.360;2023-07-31T11:03:26;95045.56;;;28.34;41.94
36192;BME280;22233;42.708;23.360;2023-07-31T11:08:26;95043.47;;;28.83;40.30
36192;BME280;22233;42.708;23.360;2023-07-31T11:13:26;95039.63;;;29.36;40.24
36192;BME280;22233;42.708;23.360;2023-07-31T11:15:52;95043.88;;;28.98;39.83
36192;BME280;22233;42.708;23.360;2023-07-31T11:18:17;95024.00;;;29.09;39.40
36192;BME280;22233;42.708;23.360;2023-07-31T11:20:43;95037.72;;;29.03;39.75
36192;BME280;22233;42.708;23.360;2023-07-31T11:23:09;95029.06;;;28.85;39.81
36192;BME280;22233;42.708;23.360;2023-07-31T11:25:36;95030.16;;;28.75;39.44
36192;BME280;22233;42.708;23.360;2023-07-31T11:28:07;95025.09;;;29.41;38.58
36192;BME280;22233;42.708;23.360;2023-07-31T11:30:33;95029.81;;;29.70;38.29
36192;BME280;22233;42.708;23.360;2023-07-31T11:33:00;95039.94;;;29.93;37.67
36192;BME280;22233;42.708;23.360;2023-07-31T11:35:26;95020.84;;;29.62;37.21
36192;BME280;22233;42.708;23.360;2023-07-31T11:37:51;95027.22;;;29.24;38.13
36192;BME280;22233;42.708;23.360;2023-07-31T11:40:18;95028.13;;;29.04;38.92
36192;BME280;22233;42.708;23.360;2023-07-31T11:42:43;95014.81;;;29.08;39.31
36192;BME280;22233;42.708;23.360;2023-07-31T11:45:09;95020.59;;;29.18;39.62
36192;BME280;22233;42.708;23.360;2023-07-31T11:47:36;95017.13;;;28.97;39.78
36192;BME280;22233;42.708;23.360;2023-07-31T11:50:04;95016.66;;;29.15;39.88
36192;BME280;22233;42.708;23.360;2023-07-31T11:52:34;95024.97;;;29.32;39.91
36192;BME280;22233;42.708;23.360;2023-07-31T11:55:03;95013.13;;;29.66;38.85
36192;BME280;22233;42.708;23.360;2023-07-31T11:57:29;95021.47;;;29.82;38.40
36192;BME280;22233;42.708;23.360;2023-07-31T11:59:55;95001.16;;;29.53;38.11
36192;BME280;22233;42.708;23.360;2023-07-31T12:02:22;95030.50;;;29.61;38.21
36192;BME280;22233;42.708;23.360;2023-07-31T12:04:47;95021.22;;;29.77;38.17
36192;BME280;22233;42.708;23.360;2023-07-31T12:07:13;95010.69;;;29.68;38.23
36192;BME280;22233;42.708;23.360;2023-07-31T12:09:50;95021.34;;;29.99;38.03
36192;BME280;22233;42.708;23.360;2023-07-31T12:12:22;95009.94;;;29.80;37.37
36192;BME280;22233;42.708;23.360;2023-07-31T12:14:48;95004.50;;;30.12;37.89
36192;BME280;22233;42.708;23.360;2023-07-31T12:17:16;94982.91;;;29.99;38.05
36192;BME280;22233;42.708;23.360;2023-07-31T12:19:41;94994.03;;;30.38;37.94
36192;BME280;22233;42.708;23.360;2023-07-31T12:22:14;95002.56;;;30.34;38.43
36192;BME280;22233;42.708;23.360;2023-07-31T12:24:43;94996.53;;;30.36;38.02
36192;BME280;22233;42.708;23.360;2023-07-31T12:27:14;95011.72;;;30.48;37.79
36192;BME280;22233;42.708;23.360;2023-07-31T12:29:42;94996.19;;;30.34;38.28
36192;BME280;22233;42.708;23.360;2023-07-31T12:32:25;95008.06;;;30.25;37.84
36192;BME280;22233;42.708;23.360;2023-07-31T12:34:51;95008.72;;;30.42;37.28
36192;BME280;22233;42.708;23.360;2023-07-31T12:37:17;94988.06;;;30.01;37.77
36192;BME280;22233;42.708;23.360;2023-07-31T12:39:42;94985.13;;;30.17;37.65
36192;BME280;22233;42.708;23.360;2023-07-31T12:42:08;94991.09;;;29.94;38.10
36192;BME280;22233;42.708;23.360;2023-07-31T12:44:33;94986.69;;;30.05;38.31
36192;BME280;22233;42.708;23.360;2023-07-31T12:46:59;94988.06;;;29.50;39.19
36192;BME280;22233;42.708;23.360;2023-07-31T12:49:24;94991.09;;;29.68;39.07
36192;BME280;22233;42.708;23.360;2023-07-31T12:51:50;94979.09;;;29.29;39.58
36192;BME280;22233;42.708;23.360;2023-07-31T12:54:15;94989.59;;;29.12;40.41
36192;BME280;22233;42.708;23.360;2023-07-31T12:56:40;94971.72;;;28.93;40.72